Relevés horaires Schaffen (Belgique)


Relevés horaires à Schaffen - Vendredi 02 Avr. 2021
Heure UTC1 Température [°C] Vent [km/h] Hum. [%] Pres.4 [hPa] Visi. [Km] Nébu. [octa] Préc.5 [mm] Cond.
2m. Res. Ros. Dir.2 Vit. Moy. Raf.3
23:00 5.2 3.1 2.6 NNO 9.3 -- 11.1 83 1027.4(0.1/3h) 20 -- -- --
22:00 5.7 4.7 2.1 NNO 5.6 -- 18.5 78 1027.2(0.3/3h) 20 -- -- --
21:00 6.1 3.8 1.5 NNO 11.1 -- 16.7 72 1027.2(0.4/3h) 20 -- -- --
20:00 6.4 4.5 0.6 N 9.3 -- 14.8 66 1027.2(0.8/3h) 20 -- -- --
19:00 6.5 4.6 -- N 9.3 -- 16.7 -- 1026.9(0.6/3h) 20 -- -- --
18:00 6.6 4.4 0.6 N 11.1 -- 20.4 65 1026.7(0.5/3h) 20 -- -- --
17:00 7.0 4.8 1.2 N 11.1 -- 18.5 67 1026.4(0.1/3h) 20 -- -- --
16:00 7.8 5.8 0.5 N 11.1 -- 20.4 60 1026(0.0/3h) 20 -- -- --
15:00 8.0 5.7 0.9 NNO 13.0 -- 20.4 61 1026(-0.4/3h) 20 -- -- --
14:00 9.5 8.2 1.6 NNO 9.3 -- 20.4 58 1026.2(-0.3/3h) 20 3/8 -- --
13:00 9.2 7.5 1.0 N 11.1 -- 18.5 56 1026(-0.7/3h) 20 3/8 -- --
12:00 9.0 7.2 1.4 N 11.1 -- 16.7 59 1026.5(-0.4/3h) 20 3/8 -- --
11:00 7.7 6 1.7 N 9.3 -- 13.0 66 1026.5(0.0/3h) 20 -- -- --
10:00 7.2 5.9 2.5 N 7.4 -- 13.0 72 1026.7(0.4/3h) 20 -- -- --
09:00 5.5 3.9 2.9 NNE 7.4 -- 14.8 83 1027(0.9/3h) 15 -- -- --
08:00 4.1 1.7 2.7 N 9.3 -- 14.8 91 1026.7(0.8/3h) 10 -- -- --
07:00 3.2 1.2 2.3 N 7.4 -- 9.3 94 1026.5(0.8/3h) 7 -- -- --
06:00 2.1 0.5 1.3 N 5.6 -- 11.1 94 1026.2(0.4/3h) 10 -- -- --
05:00 1.7 -0.6 1.0 N 7.4 -- 11.1 95 1025.9(0.3/3h) 8 -- -- --
04:00 1.7 0.1 1.1 N 5.6 -- 7.4 96 1025.7(0.0/3h) 8 -- -- --
03:00 2.2 0 1.2 N 7.4 -- 11.1 93 1025.7(0.0/3h) 12 -- -- --
02:00 2.8 1.3 1.7 N 5.6 -- 11.1 92 1025.5(0.0/3h) 12 -- -- --
01:00 3.5 1.5 2.1 N 7.4 -- 9.3 91 1025.5(0.4/3h) 15 -- -- --
00:00 4.4 2.6 2.2 NNE 7.4 -- 14.8 86 1025.7(0.7/3h) 20 -- -- --

1 Coordinated Universal Time. Actuellement il est 21:00 locale et 19:00 UTC.

2 Le vent souffle depuis la direction indiquée vers la direction oposée.

3 Les rafales max. sont disponible 40 min après l'heure du relevé.

4 Pour les stations d'altitude (plus de 600m) le géopotentiel du niveau le plus proche de la pression obligatoire est indiqué.

5 Les stations disposant d'un diffuseur peuvent indiquer "trace". Cela signifie que des précipitations ont touchés le sol mais que la quantité est inférieure à 0.1 mm.

Récapitulatif de la journée
Température [°C] Vent [km/h] Ensoleillement4 [h] Precipitations totale5 [mm] Pression [Hpa]
Min1 Max.2 Moy.3 Max. Min Max.
1.6 10.5 0 20.4 0 h 0 min 0 1025.5 1027.4

1 Température minimale relevée entre 18:00 UTC la veille et 18:00 UTC le jour donné.

2 Température maximale relevée entre 06:00 UTC le jour donné et 06:00 UTC le lendemain.

3 Vent moyen de la journée basé sur les relevés horaires.

4 Ensoleillement en heures relevé entre 06:00 UTC la veille et 06:00 UTC le jour donné.

5 Précipitations totales tombées entre 06:00 UTC la jour donné et 06:00 UTC le lendemain.

Graphiques horaires